Genoa, Arkansas
Current Conditions -  °F | °C
As of 11:53 PM on Saturday 25 Oct 2014 (Local Time) from KTXK Reporting Station
Clear Clear  
Wind Chill: 19°   Ceiling: Unl
Heat Index: 19°   Visibility: 7mi
Dew Point: 18°   Wind: 7mph
Humidity: 90%   Direction: 210°SSW
Pressure: 30.05"   Gusts: NA
Location:  33.38°N, 93.91°W
Report Text: KTXK 260453Z AUTO 21006KT 7SM CLR 19/18 A3005 RMK AO2 SLP171 T01940178
Loading
Personal Weather Stations






























Interactive Weather Map
Tropical Storm Tracking
New forecast layout! Learn more

10-Day Weather Forecast

Advertisements
Track Severe Weather on mobile